Time;durP1;ratioP1;P1;durP2;ratioP2;P2;SDS_P1;SDS_P2;PMS_P1;PMS_P2;Temp;Humidity;BMP_temperature;BMP_pressure;BME280_temperature;BME280_humidity;BME280_pressure;Samples;Min_cycle;Max_cycle;Signal;HPM_P1;HPM_P2
2022/11/30 00:01:48;;;;;;;16.67;8.90;;;;;;;10.66;72.31;102409.00;5052487;28;20025;-41
2022/11/30 00:04:14;;;;;;;19.52;8.07;;;;;;;10.70;71.64;102403.03;5053016;28;20017;-44
2022/11/30 00:06:42;;;;;;;16.25;8.82;;;;;;;10.72;71.82;102414.44;5052465;28;20025;-41
2022/11/30 00:09:07;;;;;;;16.58;8.55;;;;;;;10.71;71.60;102410.03;5053672;28;20028;-41
2022/11/30 00:11:33;;;;;;;17.52;8.05;;;;;;;10.67;71.66;102422.09;5055023;28;20013;-41
2022/11/30 00:13:58;;;;;;;14.82;7.93;;;;;;;10.64;71.84;102413.25;5055569;28;20060;-41
2022/11/30 00:16:26;;;;;;;14.63;8.65;;;;;;;10.75;71.33;102414.53;5055822;28;20485;-43
2022/11/30 00:18:51;;;;;;;17.58;8.50;;;;;;;10.72;71.40;102417.03;5055030;28;20021;-41
2022/11/30 00:21:17;;;;;;;18.20;8.77;;;;;;;10.64;71.36;102415.84;5051515;28;20043;-41
2022/11/30 00:23:44;;;;;;;15.38;8.52;;;;;;;10.67;71.20;102416.88;5051873;28;20111;-43
2022/11/30 00:26:12;;;;;;;16.42;7.85;;;;;;;10.65;71.33;102421.13;5052051;28;20025;-43
2022/11/30 00:28:39;;;;;;;15.82;8.80;;;;;;;10.68;71.55;102421.25;5052773;28;20032;-41
2022/11/30 00:31:07;;;;;;;16.70;8.50;;;;;;;10.70;71.47;102418.69;5051693;28;20120;-44
2022/11/30 00:33:34;;;;;;;18.58;7.97;;;;;;;10.66;71.48;102422.94;5052646;28;20040;-41
2022/11/30 00:36:02;;;;;;;15.60;8.57;;;;;;;10.66;71.30;102428.16;5053610;28;20021;-42
2022/11/30 00:38:30;;;;;;;17.45;8.57;;;;;;;10.70;71.10;102426.53;5052780;28;20079;-43
2022/11/30 00:40:55;;;;;;;17.42;8.68;;;;;;;10.46;71.74;102431.69;5052537;28;20541;-42
2022/11/30 00:43:21;;;;;;;17.95;8.73;;;;;;;10.64;71.55;102423.69;5052029;28;20124;-42
2022/11/30 00:45:46;;;;;;;13.25;8.05;;;;;;;10.68;71.39;102420.34;5052423;28;20040;-44
2022/11/30 00:48:11;;;;;;;19.20;8.60;;;;;;;10.67;71.55;102422.09;5052177;28;20493;-45
2022/11/30 00:50:37;;;;;;;15.40;8.65;;;;;;;10.76;71.17;102414.59;5051629;28;20501;-44
2022/11/30 00:53:02;;;;;;;18.30;9.25;;;;;;;10.56;71.72;102419.06;5051983;28;20033;-43
2022/11/30 00:55:27;;;;;;;13.38;8.07;;;;;;;10.78;71.29;102412.06;5051765;28;20029;-43
2022/11/30 00:57:53;;;;;;;14.70;8.38;;;;;;;10.75;71.34;102415.44;5051108;28;20063;-43
2022/11/30 01:00:18;;;;;;;19.17;8.32;;;;;;;10.69;71.79;102417.81;5051329;28;20101;-41
2022/11/30 01:02:44;;;;;;;15.15;8.38;;;;;;;10.68;71.89;102405.59;5050974;28;20021;-41
2022/11/30 01:05:09;;;;;;;17.20;9.02;;;;;;;10.79;71.31;102413.84;5051551;28;20514;-42
2022/11/30 01:07:35;;;;;;;16.25;8.60;;;;;;;10.80;71.48;102418.19;5049592;28;20028;-43
2022/11/30 01:10:00;;;;;;;14.38;7.45;;;;;;;10.85;71.40;102420.19;5050989;28;20029;-41
2022/11/30 01:12:25;;;;;;;15.02;8.13;;;;;;;10.81;71.58;102417.38;5053727;28;20046;-42
2022/11/30 01:14:51;;;;;;;16.25;8.10;;;;;;;10.77;71.62;102412.88;5054141;28;20041;-44
2022/11/30 01:17:16;;;;;;;14.93;7.80;;;;;;;10.91;71.63;102420.41;5054308;28;20119;-41
2022/11/30 01:19:41;;;;;;;16.45;8.52;;;;;;;10.85;71.43;102420.19;5054037;28;20024;-41
2022/11/30 01:22:06;;;;;;;15.13;8.48;;;;;;;10.77;71.83;102416.38;5053096;28;20036;-40
2022/11/30 01:24:32;;;;;;;13.13;7.88;;;;;;;10.83;71.40;102420.94;5051513;28;20463;-42
2022/11/30 01:26:57;;;;;;;14.57;7.88;;;;;;;10.84;71.45;102421.00;5050446;28;20036;-43
2022/11/30 01:29:23;;;;;;;14.38;7.97;;;;;;;10.88;71.47;102419.38;5050708;28;20731;-48
2022/11/30 01:31:48;;;;;;;15.27;7.60;;;;;;;10.88;71.88;102429.81;5050091;28;20021;-41
2022/11/30 01:34:13;;;;;;;15.88;7.20;;;;;;;10.94;71.63;102422.22;5050466;28;20607;-42
2022/11/30 01:36:38;;;;;;;14.65;7.95;;;;;;;10.94;71.54;102415.28;5050607;28;20113;-44
2022/11/30 01:39:07;;;;;;;19.02;7.97;;;;;;;10.85;71.83;102420.19;5049932;28;20029;-42
2022/11/30 01:41:32;;;;;;;15.10;7.35;;;;;;;10.94;71.57;102420.50;5050302;28;20079;-41
2022/11/30 01:44:25;;;;;;;15.85;7.35;;;;;;;10.96;71.76;102415.34;5051067;28;20476;-42
2022/11/30 01:46:53;;;;;;;14.45;7.60;;;;;;;10.87;71.98;102413.28;5031189;28;20099;-44
2022/11/30 01:49:28;;;;;;;16.70;7.78;;;;;;;10.75;72.46;102415.44;5050881;28;20060;-43
2022/11/30 01:52:04;;;;;;;12.63;7.47;;;;;;;10.76;72.08;102414.59;5050817;28;20078;-39
2022/11/30 01:54:37;;;;;;;13.40;7.50;;;;;;;10.84;71.80;102415.78;5050378;28;20435;-43
2022/11/30 01:57:27;;;;;;;16.52;7.95;;;;;;;10.81;71.21;102418.25;5052100;28;20025;-41
2022/11/30 01:59:55;;;;;;;12.98;7.20;;;;;;;10.77;70.85;102415.50;5054172;28;20325;-41
2022/11/30 02:02:29;;;;;;;12.35;6.95;;;;;;;10.68;70.47;102417.75;5054130;28;20021;-41
2022/11/30 02:04:55;;;;;;;14.18;7.07;;;;;;;10.58;70.18;102425.25;5051016;28;20032;-39
2022/11/30 02:07:20;;;;;;;12.75;7.00;;;;;;;10.55;70.25;102426.84;5050367;28;20461;-41
2022/11/30 02:09:46;;;;;;;12.90;6.63;;;;;;;10.46;70.25;102427.38;5050826;28;20094;-41
2022/11/30 02:12:23;;;;;;;11.40;6.75;;;;;;;10.38;70.39;102433.09;5051992;28;20021;-42
2022/11/30 02:14:53;;;;;;;14.35;6.75;;;;;;;10.26;70.50;102430.91;5053156;28;20504;-41
2022/11/30 02:17:29;;;;;;;13.50;6.80;;;;;;;10.23;70.83;102425.59;5053834;28;20025;-42
2022/11/30 02:20:15;;;;;;;12.57;6.63;;;;;;;10.24;70.57;102424.78;5053272;28;20025;-41
2022/11/30 02:23:18;;;;;;;14.55;7.13;;;;;;;10.23;70.73;102425.59;5051464;28;20036;-41
2022/11/30 02:26:06;;;;;;;16.80;6.95;;;;;;;10.22;70.61;102428.13;5049903;28;20028;-44
2022/11/30 02:28:59;;;;;;;13.02;6.68;;;;;;;10.00;71.42;102431.59;5049807;28;20029;-43
2022/11/30 02:31:30;;;;;;;13.15;6.82;;;;;;;10.16;70.78;102429.69;5049663;28;20025;-44
2022/11/30 02:33:58;;;;;;;13.90;6.95;;;;;;;10.23;71.26;102428.22;5049845;28;20029;-41
2022/11/30 02:36:24;;;;;;;13.70;6.85;;;;;;;10.23;71.14;102435.13;5050204;28;20481;-41
2022/11/30 02:38:50;;;;;;;12.23;6.85;;;;;;;10.26;70.99;102435.25;5050177;28;20051;-41
2022/11/30 02:41:16;;;;;;;11.70;6.47;;;;;;;10.28;70.87;102438.81;5049993;28;20021;-45
2022/11/30 02:43:41;;;;;;;14.27;6.97;;;;;;;10.25;71.43;102436.06;5050174;28;20025;-41
2022/11/30 02:46:31;;;;;;;12.85;7.25;;;;;;;10.28;71.27;102433.59;5050036;28;20029;-41
2022/11/30 02:49:40;;;;;;;14.25;6.78;;;;;;;10.36;71.22;102432.19;5049620;28;20082;-42
2022/11/30 02:52:09;;;;;;;13.35;7.40;;;;;;;10.40;71.36;102431.47;5044529;28;20041;-41
2022/11/30 02:54:34;;;;;;;16.50;7.07;;;;;;;10.15;71.96;102438.28;5050160;28;20040;-44
2022/11/30 02:56:59;;;;;;;13.77;7.35;;;;;;;10.18;72.33;102438.44;5052009;28;20380;-41
2022/11/30 02:59:25;;;;;;;16.17;7.32;;;;;;;10.33;71.81;102434.66;5054118;28;20033;-41
2022/11/30 03:01:50;;;;;;;14.95;7.18;;;;;;;10.36;71.46;102433.06;5053965;28;20387;-41
2022/11/30 03:04:16;;;;;;;15.80;7.65;;;;;;;10.41;71.49;102436.75;5054244;28;20082;-41
2022/11/30 03:06:41;;;;;;;13.43;7.68;;;;;;;10.47;71.32;102436.09;5054623;28;20071;-41
2022/11/30 03:09:06;;;;;;;12.45;6.90;;;;;;;10.61;71.04;102429.69;5076603;23;20051;-45
2022/11/30 03:11:32;;;;;;;15.32;7.57;;;;;;;10.55;70.84;102438.13;5054001;28;20203;-43
2022/11/30 03:13:58;;;;;;;14.45;6.93;;;;;;;10.52;71.12;102439.75;5062631;28;20041;-42
2022/11/30 03:16:23;;;;;;;14.18;7.43;;;;;;;10.46;70.99;102436.91;5067227;28;20048;-42
2022/11/30 03:18:48;;;;;;;14.68;7.47;;;;;;;10.45;71.36;102441.25;5064603;28;20029;-41
2022/11/30 03:21:14;;;;;;;13.95;7.50;;;;;;;10.47;71.21;102441.31;5054805;28;20039;-43
2022/11/30 03:23:39;;;;;;;14.32;7.45;;;;;;;10.43;70.93;102444.63;5052680;28;20033;-43
2022/11/30 03:26:07;;;;;;;18.13;7.18;;;;;;;10.45;70.96;102441.25;5054470;28;20028;-42
2022/11/30 03:28:32;;;;;;;12.65;7.47;;;;;;;10.47;71.41;102444.81;5055609;28;20041;-44
2022/11/30 03:30:57;;;;;;;16.83;7.45;;;;;;;10.45;71.52;102441.25;5053679;28;20138;-44
2022/11/30 03:33:23;;;;;;;13.57;6.90;;;;;;;10.50;71.54;102450.13;5052261;28;20486;-43
2022/11/30 03:36:07;;;;;;;13.90;7.10;;;;;;;10.47;71.54;102449.13;5052287;28;20029;-42
2022/11/30 03:38:33;;;;;;;13.75;7.20;;;;;;;10.60;71.38;102451.38;5052331;28;20497;-44
2022/11/30 03:41:13;;;;;;;16.48;7.15;;;;;;;10.56;71.17;102452.97;5052028;28;20029;-44
2022/11/30 03:43:38;;;;;;;13.50;7.28;;;;;;;10.63;71.25;102448.88;5051997;28;20021;-42
2022/11/30 03:46:04;;;;;;;16.75;7.85;;;;;;;10.32;72.04;102444.19;5052345;28;20047;-43
2022/11/30 03:48:30;;;;;;;15.57;7.28;;;;;;;10.21;72.31;102447.22;5052198;28;20366;-43
2022/11/30 03:50:55;;;;;;;13.57;7.47;;;;;;;10.41;71.79;102447.16;5051758;28;20200;-45
2022/11/30 03:53:22;;;;;;;12.63;6.93;;;;;;;10.55;71.15;102452.94;5052336;28;20105;-47
2022/11/30 03:55:53;;;;;;;13.23;7.35;;;;;;;10.61;70.47;102455.78;5052561;28;20559;-43
2022/11/30 03:58:18;;;;;;;15.43;7.75;;;;;;;10.51;71.18;102461.44;5052314;28;20057;-43
2022/11/30 04:00:43;;;;;;;12.70;6.70;;;;;;;10.50;70.96;102459.66;5052570;28;20054;-43
2022/11/30 04:03:09;;;;;;;15.57;7.60;;;;;;;10.51;71.00;102467.56;5053221;28;20036;-41
2022/11/30 04:05:34;;;;;;;16.23;7.90;;;;;;;10.40;70.95;102461.03;5054310;28;20049;-44
2022/11/30 04:07:59;;;;;;;14.32;6.85;;;;;;;10.45;71.51;102469.03;5053517;28;20028;-43
2022/11/30 04:10:24;;;;;;;16.35;7.35;;;;;;;10.51;71.15;102470.16;5051902;28;20021;-45
2022/11/30 04:12:50;;;;;;;12.80;6.80;;;;;;;10.47;70.47;102468.28;5051455;28;20116;-44
2022/11/30 04:15:15;;;;;;;20.00;8.55;;;;;;;10.18;71.93;102458.41;5051719;28;20116;-43
2022/11/30 04:17:40;;;;;;;19.52;8.57;;;;;;;10.19;71.90;102462.78;5051602;28;20029;-42
2022/11/30 04:20:06;;;;;;;15.70;7.72;;;;;;;10.29;70.72;102466.66;5050953;28;20027;-42
2022/11/30 04:22:32;;;;;;;16.85;8.48;;;;;;;10.24;70.73;102471.69;5051194;28;20028;-44
2022/11/30 04:24:58;;;;;;;19.38;8.93;;;;;;;10.24;71.14;102466.47;5051593;28;20031;-42
2022/11/30 04:27:23;;;;;;;19.05;9.32;;;;;;;10.21;71.63;102470.66;5051313;28;20048;-44
2022/11/30 04:29:48;;;;;;;21.83;10.00;;;;;;;10.38;71.22;102467.00;5051637;28;20025;-46
2022/11/30 04:32:14;;;;;;;17.63;9.45;;;;;;;10.41;71.17;102464.53;5050899;28;20028;-42
2022/11/30 04:34:39;;;;;;;17.27;9.75;;;;;;;10.41;71.16;102474.97;5050909;28;20020;-47
2022/11/30 04:37:04;;;;;;;18.52;9.82;;;;;;;10.44;71.45;102467.25;5052441;28;20025;-45
2022/11/30 04:39:32;;;;;;;19.40;9.68;;;;;;;10.45;71.48;102467.31;5053076;28;20059;-42
2022/11/30 04:41:57;;;;;;;21.35;10.27;;;;;;;10.47;71.66;102468.28;5051407;28;20424;-44
2022/11/30 04:44:23;;;;;;;19.40;10.13;;;;;;;10.50;71.45;102467.47;5051011;28;20025;-41
2022/11/30 04:46:48;;;;;;;17.27;9.98;;;;;;;10.45;71.32;102469.03;5050909;28;20044;-42
2022/11/30 04:49:13;;;;;;;20.67;11.15;;;;;;;10.47;71.36;102470.00;5051062;28;20021;-42
2022/11/30 04:51:38;;;;;;;22.17;10.77;;;;;;;10.51;71.51;102472.75;5050870;28;20465;-44
2022/11/30 04:54:04;;;;;;;24.83;11.48;;;;;;;10.53;71.56;102472.84;5050878;28;20021;-42
2022/11/30 04:56:29;;;;;;;23.02;11.35;;;;;;;10.33;72.21;102469.44;5050666;28;20329;-44
2022/11/30 04:58:54;;;;;;;22.10;11.63;;;;;;;10.49;71.92;102473.56;5050657;28;20029;-46
2022/11/30 05:01:19;;;;;;;20.02;10.95;;;;;;;10.56;71.51;102475.53;5050693;28;20358;-41
2022/11/30 05:03:45;;;;;;;23.77;11.48;;;;;;;10.57;71.53;102479.94;5050644;28;20036;-43
2022/11/30 05:06:10;;;;;;;25.77;12.77;;;;;;;10.49;71.50;102476.16;5051093;28;20019;-46
2022/11/30 05:08:35;;;;;;;23.55;11.60;;;;;;;10.50;71.04;102473.59;5050221;28;20500;-43
2022/11/30 05:11:01;;;;;;;21.25;11.38;;;;;;;10.56;70.97;102475.53;5050121;28;20033;-42
2022/11/30 05:13:27;;;;;;;26.67;12.15;;;;;;;10.62;70.83;102481.00;5050481;28;20104;-43
2022/11/30 05:15:52;;;;;;;20.50;11.85;;;;;;;10.59;71.27;102486.13;5050571;28;20033;-43
2022/11/30 05:18:18;;;;;;;24.25;12.48;;;;;;;10.56;71.39;102494.69;5049731;28;20071;-44
2022/11/30 05:20:50;;;;;;;24.50;12.10;;;;;;;10.64;71.53;102488.88;5049894;28;20021;-41
2022/11/30 05:23:16;;;;;;;23.95;12.60;;;;;;;10.63;71.37;102490.59;5050510;28;20253;-43
2022/11/30 05:25:42;;;;;;;22.60;12.00;;;;;;;10.62;71.23;102493.16;5050407;28;20555;-46
2022/11/30 05:28:07;;;;;;;25.63;12.13;;;;;;;10.64;71.30;102486.28;5050518;28;20508;-42
2022/11/30 05:30:32;;;;;;;24.10;12.60;;;;;;;10.69;71.88;102487.34;5050068;28;20500;-44
2022/11/30 05:32:58;;;;;;;27.55;12.25;;;;;;;10.67;71.47;102479.47;5050192;28;20056;-42
2022/11/30 05:35:23;;;;;;;22.73;12.57;;;;;;;10.75;71.53;102490.19;5050489;28;20021;-44
2022/11/30 05:37:49;;;;;;;24.17;12.43;;;;;;;10.74;71.23;102486.69;5050446;28;20032;-47
2022/11/30 05:40:14;;;;;;;24.05;12.63;;;;;;;10.71;71.42;102493.53;5049940;28;20104;-46
2022/11/30 05:42:39;;;;;;;26.50;12.93;;;;;;;10.41;72.47;102490.59;5049795;28;20473;-43
2022/11/30 05:45:05;;;;;;;28.08;13.02;;;;;;;10.59;71.59;102488.72;5050175;28;20025;-48
2022/11/30 05:47:31;;;;;;;23.95;12.30;;;;;;;10.67;71.33;102495.13;5049760;28;20456;-41
2022/11/30 05:49:56;;;;;;;26.65;13.05;;;;;;;10.70;71.56;102494.34;5050034;28;20021;-41
2022/11/30 05:52:21;;;;;;;23.50;11.90;;;;;;;10.65;71.41;102495.88;5049829;28;20035;-45
2022/11/30 05:54:47;;;;;;;25.58;12.88;;;;;;;10.64;71.54;102500.22;5050019;28;20047;-41
2022/11/30 05:57:12;;;;;;;25.55;12.57;;;;;;;10.64;71.53;102499.31;5049892;28;20029;-42
2022/11/30 05:59:37;;;;;;;26.75;12.75;;;;;;;10.58;71.52;102494.75;5050002;28;20116;-44
2022/11/30 06:02:03;;;;;;;29.50;13.57;;;;;;;10.63;71.59;102498.44;5049749;28;20139;-44
2022/11/30 06:04:28;;;;;;;24.17;12.45;;;;;;;10.74;71.50;102504.94;5050502;28;20481;-46
2022/11/30 06:06:56;;;;;;;24.65;12.68;;;;;;;10.75;71.59;102505.84;5050879;28;20025;-43
2022/11/30 06:09:21;;;;;;;27.00;13.35;;;;;;;10.68;71.48;102507.31;5051280;28;20025;-42
2022/11/30 06:11:47;;;;;;;25.13;12.63;;;;;;;10.75;71.83;102516.28;5051261;28;20112;-42
2022/11/30 06:14:12;;;;;;;26.10;13.13;;;;;;;10.77;71.62;102507.69;5052309;28;20037;-44
2022/11/30 06:16:38;;;;;;;26.42;13.80;;;;;;;10.88;71.30;102513.31;5053413;28;20056;-42
2022/11/30 06:19:04;;;;;;;23.45;12.55;;;;;;;10.81;71.21;102506.06;5052741;28;20104;-42
2022/11/30 06:21:29;;;;;;;22.67;12.40;;;;;;;10.84;71.39;102509.72;5051043;28;20505;-46
2022/11/30 06:23:54;;;;;;;24.35;12.13;;;;;;;10.84;71.70;102512.31;5050410;28;20496;-42
2022/11/30 06:26:19;;;;;;;23.02;12.35;;;;;;;10.85;71.65;102510.59;5050098;28;20044;-43
2022/11/30 06:28:45;;;;;;;25.00;12.63;;;;;;;10.85;71.85;102511.50;5050201;28;20067;-46
2022/11/30 06:31:10;;;;;;;24.38;12.65;;;;;;;10.85;71.80;102513.22;5052134;28;20029;-41
2022/11/30 06:33:36;;;;;;;23.00;12.40;;;;;;;10.91;71.42;102519.56;5054159;28;20048;-44
2022/11/30 06:36:02;;;;;;;22.52;12.30;;;;;;;10.98;71.45;102513.69;5053861;28;20670;-44
2022/11/30 06:38:27;;;;;;;25.50;12.75;;;;;;;10.91;71.55;102521.28;5054143;28;20408;-42
2022/11/30 06:40:53;;;;;;;27.33;13.57;;;;;;;10.70;72.23;102515.22;5053563;28;20025;-46
2022/11/30 06:43:18;;;;;;;27.60;13.07;;;;;;;10.88;71.51;102516.81;5053143;28;20040;-46
2022/11/30 06:45:45;;;;;;;25.90;13.38;;;;;;;11.05;71.20;102519.16;5053339;28;20067;-47
2022/11/30 06:48:11;;;;;;;26.30;13.73;;;;;;;11.12;71.35;102521.16;5053405;28;20043;-45
2022/11/30 06:50:37;;;;;;;33.03;15.35;;;;;;;10.87;71.55;102527.19;5053062;28;20055;-45
2022/11/30 06:53:02;;;;;;;29.92;14.18;;;;;;;10.97;71.76;102530.22;5053792;28;20405;-44
2022/11/30 06:55:31;;;;;;;28.30;14.15;;;;;;;11.11;71.36;102529.81;5054065;28;20040;-42
2022/11/30 06:58:04;;;;;;;28.10;15.32;;;;;;;10.97;71.75;102527.63;5053807;28;20056;-42
2022/11/30 07:00:29;;;;;;;25.90;14.00;;;;;;;11.01;71.50;102532.94;5053763;28;20073;-42
2022/11/30 07:02:54;;;;;;;29.25;14.70;;;;;;;10.99;71.74;102532.88;5053154;28;20045;-44
2022/11/30 07:05:20;;;;;;;27.83;14.25;;;;;;;10.99;71.46;102533.75;5052942;28;20033;-43
2022/11/30 07:07:45;;;;;;;28.35;13.70;;;;;;;11.02;71.21;102537.31;5053164;28;20485;-43
2022/11/30 07:10:10;;;;;;;30.83;14.05;;;;;;;10.95;71.65;102528.38;5055342;28;20045;-42
2022/11/30 07:12:36;;;;;;;30.90;14.60;;;;;;;10.63;72.38;102531.44;5055885;28;20021;-44
2022/11/30 07:15:01;;;;;;;24.90;13.43;;;;;;;10.92;71.84;102536.06;5054775;28;20419;-42
2022/11/30 07:17:26;;;;;;;25.17;13.63;;;;;;;10.99;71.94;102544.19;5053397;28;20029;-43
2022/11/30 07:19:51;;;;;;;30.75;14.93;;;;;;;10.87;72.05;102548.94;5055417;28;20052;-43
2022/11/30 07:22:17;;;;;;;29.23;14.32;;;;;;;10.96;71.80;102553.63;5056898;28;20133;-43
2022/11/30 07:27:26;;;;;;;24.60;13.88;;;;;;;11.01;71.41;102559.03;5053315;28;20520;-44
2022/11/30 07:29:51;;;;;;;26.20;13.55;;;;;;;11.00;71.58;102558.13;5053614;28;20029;-42
2022/11/30 07:32:17;;;;;;;27.92;13.93;;;;;;;11.01;72.07;102561.63;5052997;28;20677;-44
2022/11/30 07:34:42;;;;;;;28.58;14.48;;;;;;;10.95;71.94;102563.19;5052966;28;20029;-43
2022/11/30 07:37:08;;;;;;;27.83;14.13;;;;;;;11.01;71.63;102569.47;5055802;28;20075;-44
2022/11/30 07:39:33;;;;;;;31.40;14.95;;;;;;;11.04;71.65;102567.00;5061327;28;20059;-41
2022/11/30 07:41:58;;;;;;;32.30;15.18;;;;;;;10.93;71.91;102569.16;5058786;28;20067;-43
2022/11/30 07:44:24;;;;;;;32.15;14.98;;;;;;;10.85;72.19;102573.22;5059903;28;20056;-45
2022/11/30 07:46:49;;;;;;;31.42;15.00;;;;;;;10.99;71.96;102566.78;5060741;28;20021;-39
2022/11/30 07:49:14;;;;;;;27.50;14.27;;;;;;;10.98;72.18;102573.72;5060834;28;20449;-40
2022/11/30 07:51:39;;;;;;;32.35;16.02;;;;;;;10.90;72.59;102569.97;5057835;28;20021;-42
2022/11/30 07:54:05;;;;;;;30.60;15.15;;;;;;;10.93;72.56;102570.06;5053062;28;20025;-46
2022/11/30 07:56:30;;;;;;;30.42;15.10;;;;;;;10.93;72.63;102572.66;5052561;28;20040;-45
2022/11/30 07:58:59;;;;;;;35.25;16.52;;;;;;;10.99;72.19;102583.34;5052057;28;20478;-40
2022/11/30 08:01:27;;;;;;;33.53;15.75;;;;;;;11.01;72.18;102583.41;5051870;28;20024;-45
2022/11/30 08:03:53;;;;;;;34.03;15.93;;;;;;;10.89;72.54;102582.94;5052229;28;20037;-42
2022/11/30 08:06:21;;;;;;;34.97;16.35;;;;;;;10.77;73.39;102579.84;5052159;28;20473;-46
2022/11/30 08:08:49;;;;;;;35.88;16.15;;;;;;;10.88;73.20;102587.25;5051602;28;20119;-45
2022/11/30 08:11:20;;;;;;;36.97;17.00;;;;;;;10.82;73.40;102589.63;5051540;28;20029;-42
2022/11/30 08:13:46;;;;;;;41.65;18.05;;;;;;;10.96;73.53;102591.06;5052670;28;20509;-44
2022/11/30 08:16:14;;;;;;;33.28;16.55;;;;;;;11.21;72.85;102594.63;5052635;28;20077;-40
2022/11/30 08:18:41;;;;;;;35.45;16.52;;;;;;;11.29;72.65;102595.78;5053682;28;20076;-47
2022/11/30 08:21:08;;;;;;;32.22;15.63;;;;;;;11.38;72.39;102604.88;5052809;28;20362;-46
2022/11/30 08:23:37;;;;;;;34.70;15.93;;;;;;;11.39;72.18;102608.38;5052083;28;20669;-41
2022/11/30 08:26:09;;;;;;;33.42;16.88;;;;;;;11.46;72.18;102602.56;5052199;28;20052;-42
2022/11/30 08:28:37;;;;;;;34.33;16.10;;;;;;;11.27;71.99;102610.53;5051695;28;20028;-45
2022/11/30 08:31:12;;;;;;;34.75;16.60;;;;;;;11.22;72.76;102602.47;5052052;28;20036;-47
2022/11/30 08:33:38;;;;;;;35.53;16.10;;;;;;;11.16;72.86;102602.25;5053683;28;20579;-42
2022/11/30 08:36:13;;;;;;;35.33;17.10;;;;;;;11.25;72.93;102604.34;5053836;28;20048;-42
2022/11/30 08:38:40;;;;;;;37.25;16.42;;;;;;;11.28;73.23;102609.69;5053831;28;20040;-42
2022/11/30 08:41:06;;;;;;;32.30;16.13;;;;;;;11.44;72.62;102611.16;5053964;28;20017;-43
2022/11/30 08:43:32;;;;;;;30.95;15.45;;;;;;;11.74;72.01;102615.81;5054039;28;20021;-43
2022/11/30 08:45:58;;;;;;;29.35;15.45;;;;;;;11.74;72.27;102620.16;5053519;28;20150;-42
2022/11/30 08:48:24;;;;;;;33.35;16.17;;;;;;;11.74;72.50;102618.44;5054046;28;20488;-43
2022/11/30 08:50:49;;;;;;;32.65;15.73;;;;;;;11.79;72.29;102614.25;5051899;28;20028;-46
2022/11/30 08:53:15;;;;;;;34.88;16.58;;;;;;;11.81;72.12;102619.53;5050334;28;20031;-42
2022/11/30 08:55:40;;;;;;;33.70;16.45;;;;;;;11.91;72.06;102623.34;5051264;28;20378;-43
2022/11/30 08:58:06;;;;;;;32.58;15.88;;;;;;;11.93;72.00;102627.81;5051181;28;20053;-45
2022/11/30 09:00:31;;;;;;;34.70;16.38;;;;;;;11.99;72.16;102620.19;5050828;28;20028;-42
2022/11/30 09:02:56;;;;;;;34.25;15.95;;;;;;;11.86;71.94;102625.81;5051288;28;20029;-42
2022/11/30 09:05:22;;;;;;;37.67;17.15;;;;;;;11.97;72.09;102629.69;5051630;28;20188;-41
2022/11/30 09:07:47;;;;;;;34.03;16.58;;;;;;;11.98;72.16;102625.34;5052324;28;20658;-43
2022/11/30 09:10:12;;;;;;;34.80;16.55;;;;;;;12.09;71.72;102629.22;5054556;28;20021;-46
2022/11/30 09:12:38;;;;;;;33.15;16.30;;;;;;;12.17;71.62;102623.44;5055530;28;20033;-41
2022/11/30 09:15:06;;;;;;;35.40;16.05;;;;;;;12.25;71.50;102628.06;5054985;28;20086;-41
2022/11/30 09:17:32;;;;;;;32.55;16.08;;;;;;;12.30;71.38;102626.47;5051026;28;20095;-41
2022/11/30 09:19:57;;;;;;;32.78;16.52;;;;;;;12.11;71.69;102636.31;5050574;28;20031;-43
2022/11/30 09:22:23;;;;;;;33.22;16.55;;;;;;;12.08;71.80;102635.28;5050208;28;20099;-46
2022/11/30 09:24:48;;;;;;;38.72;16.67;;;;;;;12.35;71.49;102635.38;5050339;28;20104;-43
2022/11/30 09:27:13;;;;;;;34.53;16.50;;;;;;;12.38;71.17;102636.34;5050597;28;20108;-43
2022/11/30 09:29:39;;;;;;;33.80;16.20;;;;;;;12.16;70.87;102646.91;5050662;28;20055;-43
2022/11/30 09:32:04;;;;;;;38.00;17.65;;;;;;;12.29;71.01;102641.28;5049951;28;20452;-43
2022/11/30 09:34:30;;;;;;;34.67;16.02;;;;;;;12.44;70.82;102638.31;5050377;28;20047;-45
2022/11/30 09:36:55;;;;;;;32.08;16.60;;;;;;;12.59;70.75;102644.94;5050182;28;20082;-43
2022/11/30 09:39:20;;;;;;;35.05;16.30;;;;;;;12.64;70.33;102647.69;5050202;28;20033;-44
2022/11/30 09:42:03;;;;;;;34.10;16.45;;;;;;;12.66;70.12;102653.88;5050081;28;20174;-44
2022/11/30 09:44:55;;;;;;;33.83;16.08;;;;;;;12.67;69.64;102653.03;5050011;28;20033;-42
2022/11/30 09:47:48;;;;;;;30.52;15.43;;;;;;;12.58;69.44;102658.84;5050178;28;20481;-46
2022/11/30 09:50:23;;;;;;;29.77;15.68;;;;;;;12.57;69.63;102657.06;5049980;28;20052;-41
2022/11/30 09:52:52;;;;;;;33.45;16.27;;;;;;;12.43;69.28;102653.13;5050273;28;20468;-42
2022/11/30 09:55:27;;;;;;;33.67;16.30;;;;;;;12.43;69.14;102653.13;5047356;28;20121;-45
2022/11/30 09:57:56;;;;;;;32.03;15.90;;;;;;;12.41;69.13;102654.78;5049949;28;20124;-44
2022/11/30 10:00:23;;;;;;;30.63;16.60;;;;;;;12.43;69.09;102650.50;5049491;28;20096;-44
2022/11/30 10:02:56;;;;;;;33.72;16.58;;;;;;;12.42;69.46;102653.06;5050243;28;20401;-45
2022/11/30 10:05:27;;;;;;;32.17;16.13;;;;;;;12.44;69.13;102654.00;5050836;28;20020;-43
2022/11/30 10:08:21;;;;;;;28.55;15.50;;;;;;;12.61;68.77;102663.31;5052436;28;20037;-43
2022/11/30 10:11:07;;;;;;;27.48;15.02;;;;;;;12.73;68.75;102668.06;5051571;28;20096;-44
2022/11/30 10:13:54;;;;;;;27.85;14.65;;;;;;;12.87;67.97;102670.25;5057331;28;20025;-43
2022/11/30 10:16:35;;;;;;;24.55;14.35;;;;;;;13.00;67.29;102666.31;5057644;28;20032;-43
2022/11/30 10:19:26;;;;;;;26.20;14.65;;;;;;;12.94;66.07;102667.00;5057375;28;20518;-43
2022/11/30 10:22:28;;;;;;;26.90;14.57;;;;;;;13.01;65.54;102671.63;5057179;28;20469;-47
2022/11/30 10:25:22;;;;;;;31.55;14.95;;;;;;;12.99;65.25;102665.44;5051881;28;20024;-42
2022/11/30 10:27:52;;;;;;;23.83;14.10;;;;;;;13.26;65.27;102661.94;5050405;28;20057;-42
2022/11/30 10:30:21;;;;;;;26.67;15.75;;;;;;;12.86;66.40;102665.91;5050918;28;20035;-41
2022/11/30 10:32:50;;;;;;;28.38;15.27;;;;;;;13.06;66.76;102665.63;5051378;28;20061;-44
2022/11/30 10:35:37;;;;;;;26.35;15.50;;;;;;;13.26;66.11;102661.94;5050929;28;20104;-43
2022/11/30 10:38:13;;;;;;;27.58;14.77;;;;;;;13.32;65.72;102656.88;5049960;28;20479;-42
2022/11/30 10:40:54;;;;;;;26.63;14.38;;;;;;;13.50;65.35;102646.06;5048163;28;20025;-42
2022/11/30 10:43:29;;;;;;;30.95;14.63;;;;;;;13.52;64.82;102647.00;5049560;28;20061;-42
2022/11/30 10:45:54;;;;;;;27.00;15.57;;;;;;;13.35;65.34;102654.38;5049731;28;20040;-42
2022/11/30 10:48:46;;;;;;;29.08;16.50;;;;;;;13.44;64.54;102641.53;5049516;28;20028;-42
2022/11/30 10:51:11;;;;;;;25.75;15.00;;;;;;;13.68;64.24;102642.25;5043097;28;20110;-45
2022/11/30 10:53:36;;;;;;;25.63;15.40;;;;;;;13.12;64.47;102651.03;5051123;28;20473;-42
2022/11/30 10:56:06;;;;;;;25.92;15.18;;;;;;;13.42;64.03;102643.22;5050480;28;20040;-45
2022/11/30 10:58:59;;;;;;;26.27;14.85;;;;;;;13.67;63.09;102642.19;5053781;28;20033;-41
2022/11/30 11:01:36;;;;;;;25.50;14.63;;;;;;;13.57;63.09;102634.94;5048650;28;20028;-43
2022/11/30 11:04:11;;;;;;;25.15;14.93;;;;;;;13.39;63.14;102636.16;5050053;28;20025;-43
2022/11/30 11:06:42;;;;;;;27.20;15.02;;;;;;;12.96;64.92;102638.28;5052340;28;20397;-41
2022/11/30 11:09:28;;;;;;;28.80;15.73;;;;;;;12.95;65.37;102632.16;5055029;28;20029;-43
2022/11/30 11:11:59;;;;;;;27.00;14.65;;;;;;;13.00;65.27;102645.38;5050342;28;20021;-48
2022/11/30 11:14:27;;;;;;;27.85;15.43;;;;;;;12.99;65.35;102646.25;5049386;28;20035;-43
2022/11/30 11:17:25;;;;;;;28.52;15.88;;;;;;;12.98;65.97;102645.34;5050495;28;20021;-41
2022/11/30 11:19:51;;;;;;;34.40;16.90;;;;;;;13.01;65.98;102640.19;5030126;28;20036;-43
2022/11/30 11:22:23;;;;;;;32.15;15.95;;;;;;;12.94;66.29;102643.44;5052913;28;20023;-43